地図

経路データ

SID SEASON NUMBER BASIN SUBBASIN NAME ISO_TIME NATURE LAT LON WMO_WIND WMO_PRES WMO_AGENCY TRACK_TYPE DIST2LAND LANDFALL IFLAG USA_AGENCY USA_ATCF_ID USA_LAT USA_LON USA_RECORD USA_STATUS USA_WIND USA_PRES USA_SSHS USA_R34_NE USA_R34_SE USA_R34_SW USA_R34_NW USA_R50_NE USA_R50_SE USA_R50_SW USA_R50_NW USA_R64_NE USA_R64_SE USA_R64_SW USA_R64_NW USA_POCI USA_ROCI USA_RMW USA_EYE TOKYO_LAT TOKYO_LON TOKYO_GRADE TOKYO_WIND TOKYO_PRES TOKYO_R50_DIR TOKYO_R50_LONG TOKYO_R50_SHORT TOKYO_R30_DIR TOKYO_R30_LONG TOKYO_R30_SHORT TOKYO_LAND CMA_LAT CMA_LON CMA_CAT CMA_WIND CMA_PRES HKO_LAT HKO_LON HKO_CAT HKO_WIND HKO_PRES NEWDELHI_LAT NEWDELHI_LON NEWDELHI_GRADE NEWDELHI_WIND NEWDELHI_PRES NEWDELHI_CI NEWDELHI_DP NEWDELHI_POCI REUNION_LAT REUNION_LON REUNION_TYPE REUNION_WIND REUNION_PRES REUNION_TNUM REUNION_CI REUNION_RMW REUNION_R34_NE REUNION_R34_SE REUNION_R34_SW REUNION_R34_NW REUNION_R50_NE REUNION_R50_SE REUNION_R50_SW REUNION_R50_NW REUNION_R64_NE REUNION_R64_SE REUNION_R64_SW REUNION_R64_NW BOM_LAT BOM_LON BOM_TYPE BOM_WIND BOM_PRES BOM_TNUM BOM_CI BOM_RMW BOM_R34_NE BOM_R34_SE BOM_R34_SW BOM_R34_NW BOM_R50_NE BOM_R50_SE BOM_R50_SW BOM_R50_NW BOM_R64_NE BOM_R64_SE BOM_R64_SW BOM_R64_NW BOM_ROCI BOM_POCI BOM_EYE BOM_POS_METHOD BOM_PRES_METHOD NADI_LAT NADI_LON NADI_CAT NADI_WIND NADI_PRES WELLINGTON_LAT WELLINGTON_LON WELLINGTON_WIND WELLINGTON_PRES DS824_LAT DS824_LON DS824_STAGE DS824_WIND DS824_PRES TD9636_LAT TD9636_LON TD9636_STAGE TD9636_WIND TD9636_PRES TD9635_LAT TD9635_LON TD9635_WIND TD9635_PRES TD9635_ROCI NEUMANN_LAT NEUMANN_LON NEUMANN_CLASS NEUMANN_WIND NEUMANN_PRES MLC_LAT MLC_LON MLC_CLASS MLC_WIND MLC_PRES USA_GUST BOM_GUST BOM_GUST_PER REUNION_GUST REUNION_GUST_PER USA_SEAHGT USA_SEARAD_NE USA_SEARAD_SE USA_SEARAD_SW USA_SEARAD_NW STORM_SPEED STORM_DIR
2016230N21089 2016 49 NI BB NOT_NAMED 2016-08-16 12:00:00 NR 21.0000 89.0000 20 996 newdelhi main 67 55 ____O_________ -1 21.0000 89.0000 D 20 996 1.50000 3 3 309
2016230N21089 2016 49 NI BB NOT_NAMED 2016-08-16 15:00:00 NR 21.1000 88.8670 main 55 45 ____P_________ -1 21.1000 88.8670 D 20 996 3 3 305
2016230N21089 2016 49 NI BB NOT_NAMED 2016-08-16 18:00:00 NR 21.2000 88.7000 20 996 newdelhi main 49 33 ____O_________ -1 21.2000 88.7000 D 20 996 1.50000 3 4 300
2016230N21089 2016 49 NI BB NOT_NAMED 2016-08-16 21:00:00 NR 21.3000 88.4989 main 33 22 ____P_________ -1 21.3000 88.4989 D 20 996 3 3 305
2016230N21089 2016 49 NI BB NOT_NAMED 2016-08-17 00:00:00 NR 21.4000 88.4000 20 996 newdelhi main 22 11 ____O_________ -1 21.4000 88.4000 D 20 996 1.50000 3 2 8
2016230N21089 2016 49 NI BB NOT_NAMED 2016-08-17 03:00:00 NR 21.5000 88.5000 20 996 newdelhi main 11 11 ____O_________ -1 21.5000 88.5000 D 20 996 1.50000 3 1 43
2016230N21089 2016 49 NI BB NOT_NAMED 2016-08-17 06:00:00 NR 21.5000 88.5000 20 996 newdelhi main 11 0 ____O_________ -1 21.5000 88.5000 D 20 996 1.50000 3 2 345
2016230N21089 2016 49 NI BB NOT_NAMED 2016-08-17 09:00:00 NR 21.6712 88.4483 main 0 0 ____P_________ -1 21.6712 88.4483 D 22 995 3 6 331
2016230N21089 2016 49 NI BB NOT_NAMED 2016-08-17 12:00:00 NR 22.0000 88.2000 25 994 newdelhi main 0 0 ____O_________ -1 22.0000 88.2000 DD 25 994 0.00000 4 11 315
2016230N21089 2016 49 NI BB NOT_NAMED 2016-08-17 15:00:00 NR 22.4280 87.6181 main 0 0 ____P_________ -1 22.4280 87.6181 DD 25 994 4 15 307
2016230N21089 2016 49 NI BB NOT_NAMED 2016-08-17 18:00:00 NR 22.9000 86.9000 25 994 newdelhi main 0 0 ____O_________ -1 22.9000 86.9000 DD 25 994 0.00000 4 15 307
2016230N21089 2016 49 NI BB NOT_NAMED 2016-08-17 21:00:00 NR 23.3268 86.3133 main 0 0 ____P_________ -1 23.3268 86.3133 DD 25 994 4 14 306
2016230N21089 2016 49 NI BB NOT_NAMED 2016-08-18 00:00:00 NR 23.7000 85.7000 25 994 newdelhi main 0 0 ____O_________ -1 23.7000 85.7000 DD 25 994 0.00000 4 14 299
2016230N21089 2016 49 NI BB NOT_NAMED 2016-08-18 03:00:00 NR 24.0000 85.0000 25 994 newdelhi main 0 0 ____O_________ -1 24.0000 85.0000 DD 25 994 0.00000 4 12 284
2016230N21089 2016 49 NI BB NOT_NAMED 2016-08-18 06:00:00 NR 24.0000 84.4000 25 994 newdelhi main 0 0 ____O_________ -1 24.0000 84.4000 DD 25 994 0.00000 4 10 271
2016230N21089 2016 49 NI BB NOT_NAMED 2016-08-18 09:00:00 NR 24.0260 83.8590 main 0 0 ____P_________ -1 24.0260 83.8590 DD 25 994 4 9 276
2016230N21089 2016 49 NI BB NOT_NAMED 2016-08-18 12:00:00 NR 24.1000 83.4000 25 994 newdelhi main 0 0 ____O_________ -1 24.1000 83.4000 DD 25 994 0.00000 4 8 285
2016230N21089 2016 49 NI BB NOT_NAMED 2016-08-18 15:00:00 NR 24.2348 83.0200 main 0 0 ____P_________ -1 24.2348 83.0200 DD 25 994 4 7 295
2016230N21089 2016 49 NI BB NOT_NAMED 2016-08-18 18:00:00 NR 24.4000 82.7000 25 994 newdelhi main 0 0 ____O_________ -1 24.4000 82.7000 DD 25 994 0.00000 4 7 293
2016230N21089 2016 49 NI BB NOT_NAMED 2016-08-18 21:00:00 NR 24.5194 82.2911 main 0 0 ____P_________ -1 24.5194 82.2911 DD 25 994 4 6 299
2016230N21089 2016 49 NI BB NOT_NAMED 2016-08-19 00:00:00 NR 24.7000 82.1000 25 994 newdelhi main 0 0 ____O_________ -1 24.7000 82.1000 DD 25 994 0.00000 4 5 3
2016230N21089 2016 49 NI BB NOT_NAMED 2016-08-19 03:00:00 NR 25.0000 82.3000 25 994 newdelhi main 0 0 ____O_________ -1 25.0000 82.3000 DD 25 994 0.00000 4 14 274
2016230N21089 2016 49 NI BB NOT_NAMED 2016-08-19 06:00:00 NR 24.8000 80.6000 25 994 newdelhi main 0 0 ____O_________ -1 24.8000 80.6000 DD 25 994 0.00000 4 25 263
2016230N21089 2016 49 NI BB NOT_NAMED 2016-08-19 09:00:00 NR 24.7103 79.5486 main 0 0 ____P_________ -1 24.7103 79.5486 DD 25 994 4 15 266
2016230N21089 2016 49 NI BB NOT_NAMED 2016-08-19 12:00:00 NR 24.7000 79.0000 25 994 newdelhi main 0 0 ____O_________ -1 24.7000 79.0000 DD 25 994 0.00000 4 8 269
2016230N21089 2016 49 NI BB NOT_NAMED 2016-08-19 15:00:00 NR 24.6917 78.6251 main 0 0 ____P_________ -1 24.6917 78.6251 DD 25 994 4 5 270
2016230N21089 2016 49 NI BB NOT_NAMED 2016-08-19 18:00:00 NR 24.7000 78.4000 25 994 newdelhi main 0 0 ____O_________ -1 24.7000 78.4000 DD 25 994 0.00000 4 5 269
2016230N21089 2016 49 NI BB NOT_NAMED 2016-08-19 21:00:00 NR 24.6795 78.0999 main 0 0 ____P_________ -1 24.6795 78.0999 DD 25 994 4 5 270
2016230N21089 2016 49 NI AS NOT_NAMED 2016-08-20 00:00:00 NR 24.7000 77.8000 25 994 newdelhi main 0 0 ____O_________ -1 24.7000 77.8000 DD 25 994 0.00000 4 6 282
2016230N21089 2016 49 NI AS NOT_NAMED 2016-08-20 03:00:00 NR 24.8000 77.5000 25 994 newdelhi main 0 0 ____O_________ -1 24.8000 77.5000 DD 25 994 0.00000 4 5 282
2016230N21089 2016 49 NI AS NOT_NAMED 2016-08-20 06:00:00 NR 24.8000 77.3000 25 994 newdelhi main 0 0 ____O_________ -1 24.8000 77.3000 DD 25 994 0.00000 4 2 266
2016230N21089 2016 49 NI AS NOT_NAMED 2016-08-20 09:00:00 NR 24.7862 77.2601 main 0 0 ____P_________ -1 24.7862 77.2601 DD 22 994 4 1 270
2016230N21089 2016 49 NI AS NOT_NAMED 2016-08-20 12:00:00 NR 24.8000 77.2000 20 994 newdelhi main 0 0 ____O_________ -1 24.8000 77.2000 DD 20 994 0.00000 4 3 287
2016230N21089 2016 49 NI AS NOT_NAMED 2016-08-20 15:00:00 NR 24.8799 76.9219 main 0 0 ____P_________ -1 24.8799 76.9219 DD 17 995 3 7 287
2016230N21089 2016 49 NI AS NOT_NAMED 2016-08-20 18:00:00 NR 25.0000 76.5000 15 996 newdelhi main 0 ____O_________ -1 25.0000 76.5000 D 15 996 0.00000 3 8 287

IBTrACS Databaseについて

本データベースは、米国NOAAが公開する1842年以降の世界の熱帯低気圧のベストトラックデータアーカイブInternational Best Track Archive for Climate Stewardship (IBTrACS)を、ウェブで閲覧しやすい形式に変換したものです。

最終更新日:2021-10-08